Camborne, United Kingdom
Current Conditions -  °F | °C
As of 7:50 AM on Thursday 27 Nov 2014 (Local Time) from EGDR Reporting Station
Broken Clouds Broken Clouds  
Wind Chill: 40°   Ceiling: 3500
Heat Index: 45°   Visibility: 6mi
Dew Point: 39°   Wind: 8mph
Humidity: 81%   Direction: 130°SE
Pressure: 29.56"   Gusts: NA
Location:  50.21°N, 5.3°W
Report Text: EGDR 270750Z 13007KT 9999 FEW024 BKN035 07/04 Q1001 BLU TEMPO SCT020 WHT
Loading
Personal Weather Stations






























Interactive Weather Map New forecast layout! Learn more

10-Day Weather Forecast

Advertisements
Track Severe Weather on mobile